sensor_id;sensor_type;location;lat;lon;timestamp;temperature;humidity
42085;DHT22;27746;52.228;20.890;2023-07-29T00:01:55;17.00;99.90
42085;DHT22;27746;52.228;20.890;2023-07-29T00:06:49;17.00;99.90
42085;DHT22;27746;52.228;20.890;2023-07-29T00:09:15;17.00;99.90
42085;DHT22;27746;52.228;20.890;2023-07-29T00:14:11;17.00;99.90
42085;DHT22;27746;52.228;20.890;2023-07-29T00:26:27;17.00;99.90
42085;DHT22;27746;52.228;20.890;2023-07-29T00:31:23;17.10;99.90
42085;DHT22;27746;52.228;20.890;2023-07-29T00:36:18;17.10;99.90
42085;DHT22;27746;52.228;20.890;2023-07-29T00:41:13;17.10;99.90
42085;DHT22;27746;52.228;20.890;2023-07-29T00:46:09;17.10;99.90
42085;DHT22;27746;52.228;20.890;2023-07-29T00:48:39;17.10;99.90
42085;DHT22;27746;52.228;20.890;2023-07-29T00:51:06;17.10;99.90
42085;DHT22;27746;52.228;20.890;2023-07-29T01:03:22;17.00;99.90
42085;DHT22;27746;52.228;20.890;2023-07-29T01:06:08;17.00;99.90
42085;DHT22;27746;52.228;20.890;2023-07-29T01:08:43;17.10;99.90
42085;DHT22;27746;52.228;20.890;2023-07-29T01:11:24;17.10;99.90
42085;DHT22;27746;52.228;20.890;2023-07-29T01:13:57;17.10;99.90
42085;DHT22;27746;52.228;20.890;2023-07-29T01:16:29;17.00;99.90
42085;DHT22;27746;52.228;20.890;2023-07-29T01:19:00;17.00;99.90
42085;DHT22;27746;52.228;20.890;2023-07-29T01:31:30;18.20;99.90
42085;DHT22;27746;52.228;20.890;2023-07-29T01:34:04;17.00;99.90
42085;DHT22;27746;52.228;20.890;2023-07-29T01:36:33;17.00;99.90
42085;DHT22;27746;52.228;20.890;2023-07-29T01:39:02;17.00;99.90
42085;DHT22;27746;52.228;20.890;2023-07-29T01:41:30;17.00;99.90
42085;DHT22;27746;52.228;20.890;2023-07-29T01:43:57;17.00;99.90
42085;DHT22;27746;52.228;20.890;2023-07-29T01:46:24;17.00;99.90
42085;DHT22;27746;52.228;20.890;2023-07-29T01:56:14;16.90;99.90
42085;DHT22;27746;52.228;20.890;2023-07-29T03:10:05;16.40;99.90
42085;DHT22;27746;52.228;20.890;2023-07-29T03:44:30;16.20;99.90
42085;DHT22;27746;52.228;20.890;2023-07-29T05:05:43;16.60;99.90
42085;DHT22;27746;52.228;20.890;2023-07-29T06:49:01;18.40;99.90
42085;DHT22;27746;52.228;20.890;2023-07-29T07:08:42;19.00;99.90
42085;DHT22;27746;52.228;20.890;2023-07-29T08:10:08;21.00;99.90
42085;DHT22;27746;52.228;20.890;2023-07-29T08:12:35;21.10;99.90
42085;DHT22;27746;52.228;20.890;2023-07-29T08:15:04;21.20;99.90
42085;DHT22;27746;52.228;20.890;2023-07-29T08:17:31;21.30;99.90
42085;DHT22;27746;52.228;20.890;2023-07-29T08:19:57;21.30;99.90
42085;DHT22;27746;52.228;20.890;2023-07-29T08:22:24;21.40;99.90
42085;DHT22;27746;52.228;20.890;2023-07-29T08:24:51;21.50;99.90
42085;DHT22;27746;52.228;20.890;2023-07-29T08:27:18;21.60;99.90
42085;DHT22;27746;52.228;20.890;2023-07-29T08:29:45;21.50;99.90
42085;DHT22;27746;52.228;20.890;2023-07-29T08:32:13;21.70;99.90
42085;DHT22;27746;52.228;20.890;2023-07-29T08:34:40;21.90;99.90
42085;DHT22;27746;52.228;20.890;2023-07-29T08:37:07;21.90;99.90
42085;DHT22;27746;52.228;20.890;2023-07-29T08:39:34;22.00;99.90
42085;DHT22;27746;52.228;20.890;2023-07-29T08:42:10;22.00;99.90
42085;DHT22;27746;52.228;20.890;2023-07-29T08:44:40;22.00;99.90
42085;DHT22;27746;52.228;20.890;2023-07-29T08:47:07;22.00;99.90
42085;DHT22;27746;52.228;20.890;2023-07-29T08:49:36;22.10;99.90
42085;DHT22;27746;52.228;20.890;2023-07-29T08:52:04;22.20;99.90
42085;DHT22;27746;52.228;20.890;2023-07-29T08:54:31;22.10;99.90
42085;DHT22;27746;52.228;20.890;2023-07-29T08:56:58;22.20;99.90
42085;DHT22;27746;52.228;20.890;2023-07-29T08:59:26;22.20;99.90
42085;DHT22;27746;52.228;20.890;2023-07-29T09:01:58;22.30;99.90
42085;DHT22;27746;52.228;20.890;2023-07-29T09:04:25;22.50;99.50
42085;DHT22;27746;52.228;20.890;2023-07-29T09:06:56;22.60;99.30
42085;DHT22;27746;52.228;20.890;2023-07-29T09:09:23;22.70;99.70
42085;DHT22;27746;52.228;20.890;2023-07-29T09:21:40;22.80;98.90
42085;DHT22;27746;52.228;20.890;2023-07-29T09:24:08;23.10;98.10
42085;DHT22;27746;52.228;20.890;2023-07-29T09:26:35;23.10;97.40
42085;DHT22;27746;52.228;20.890;2023-07-29T09:41:24;23.20;97.40
42085;DHT22;27746;52.228;20.890;2023-07-29T09:58:44;23.40;96.40
42085;DHT22;27746;52.228;20.890;2023-07-29T10:03:39;24.20;93.90
42085;DHT22;27746;52.228;20.890;2023-07-29T10:06:07;24.30;94.10
42085;DHT22;27746;52.228;20.890;2023-07-29T10:08:34;24.50;94.30
42085;DHT22;27746;52.228;20.890;2023-07-29T10:13:35;24.80;93.30
42085;DHT22;27746;52.228;20.890;2023-07-29T10:16:04;25.10;92.70
42085;DHT22;27746;52.228;20.890;2023-07-29T10:18:32;25.30;92.70
42085;DHT22;27746;52.228;20.890;2023-07-29T10:21:00;25.40;92.40
42085;DHT22;27746;52.228;20.890;2023-07-29T10:23:31;25.50;91.30
42085;DHT22;27746;52.228;20.890;2023-07-29T10:26:02;25.50;90.60
42085;DHT22;27746;52.228;20.890;2023-07-29T10:28:31;25.50;89.60
42085;DHT22;27746;52.228;20.890;2023-07-29T10:30:58;25.60;90.00
42085;DHT22;27746;52.228;20.890;2023-07-29T10:33:27;25.60;87.10
42085;DHT22;27746;52.228;20.890;2023-07-29T10:35:54;25.50;85.10
42085;DHT22;27746;52.228;20.890;2023-07-29T10:38:23;25.50;85.50
42085;DHT22;27746;52.228;20.890;2023-07-29T10:40:52;25.50;87.60
42085;DHT22;27746;52.228;20.890;2023-07-29T10:43:25;25.70;87.80
42085;DHT22;27746;52.228;20.890;2023-07-29T10:45:53;25.80;87.10
42085;DHT22;27746;52.228;20.890;2023-07-29T10:58:57;26.20;89.60
42085;DHT22;27746;52.228;20.890;2023-07-29T11:59:15;26.80;85.80
42085;DHT22;27746;52.228;20.890;2023-07-29T12:01:42;28.80;76.60
42085;DHT22;27746;52.228;20.890;2023-07-29T12:04:09;28.60;76.10
42085;DHT22;27746;52.228;20.890;2023-07-29T12:06:37;28.60;76.70
42085;DHT22;27746;52.228;20.890;2023-07-29T12:11:33;28.60;77.40
42085;DHT22;27746;52.228;20.890;2023-07-29T12:14:00;28.60;77.70
42085;DHT22;27746;52.228;20.890;2023-07-29T12:16:29;28.70;77.70
42085;DHT22;27746;52.228;20.890;2023-07-29T12:19:00;28.80;75.80
42085;DHT22;27746;52.228;20.890;2023-07-29T12:21:27;28.80;75.80
42085;DHT22;27746;52.228;20.890;2023-07-29T12:23:55;28.80;75.60
42085;DHT22;27746;52.228;20.890;2023-07-29T12:26:27;28.80;75.10
42085;DHT22;27746;52.228;20.890;2023-07-29T12:28:54;28.70;75.00
42085;DHT22;27746;52.228;20.890;2023-07-29T12:31:22;28.70;76.20
42085;DHT22;27746;52.228;20.890;2023-07-29T12:33:57;28.90;76.60
42085;DHT22;27746;52.228;20.890;2023-07-29T12:36:27;29.00;75.80
42085;DHT22;27746;52.228;20.890;2023-07-29T12:39:06;29.00;73.90
42085;DHT22;27746;52.228;20.890;2023-07-29T12:41:41;28.90;73.50
42085;DHT22;27746;52.228;20.890;2023-07-29T12:44:08;28.90;74.10
42085;DHT22;27746;52.228;20.890;2023-07-29T12:46:35;28.90;73.60
42085;DHT22;27746;52.228;20.890;2023-07-29T12:49:03;28.90;74.40
42085;DHT22;27746;52.228;20.890;2023-07-29T12:51:31;29.00;75.10
42085;DHT22;27746;52.228;20.890;2023-07-29T12:53:58;29.20;75.60
42085;DHT22;27746;52.228;20.890;2023-07-29T12:56:25;29.50;75.70
42085;DHT22;27746;52.228;20.890;2023-07-29T12:58:52;29.60;74.60
42085;DHT22;27746;52.228;20.890;2023-07-29T13:01:19;29.70;73.70
42085;DHT22;27746;52.228;20.890;2023-07-29T13:03:46;29.80;70.80
42085;DHT22;27746;52.228;20.890;2023-07-29T13:06:15;29.80;71.20
42085;DHT22;27746;52.228;20.890;2023-07-29T13:08:42;29.70;70.90
42085;DHT22;27746;52.228;20.890;2023-07-29T13:11:09;29.50;71.00
42085;DHT22;27746;52.228;20.890;2023-07-29T13:13:36;29.50;71.60
42085;DHT22;27746;52.228;20.890;2023-07-29T13:16:03;29.40;71.40
42085;DHT22;27746;52.228;20.890;2023-07-29T13:18:30;29.30;71.70
42085;DHT22;27746;52.228;20.890;2023-07-29T13:20:57;29.20;72.30
42085;DHT22;27746;52.228;20.890;2023-07-29T13:23:25;29.00;72.00
42085;DHT22;27746;52.228;20.890;2023-07-29T13:25:52;28.90;71.70
42085;DHT22;27746;52.228;20.890;2023-07-29T13:28:19;28.70;71.50
42085;DHT22;27746;52.228;20.890;2023-07-29T13:30:46;28.60;72.50
42085;DHT22;27746;52.228;20.890;2023-07-29T13:33:13;28.70;72.90
42085;DHT22;27746;52.228;20.890;2023-07-29T13:35:40;28.60;72.10
42085;DHT22;27746;52.228;20.890;2023-07-29T13:38:06;28.60;72.50
42085;DHT22;27746;52.228;20.890;2023-07-29T13:40:35;28.60;72.80
42085;DHT22;27746;52.228;20.890;2023-07-29T13:43:01;28.60;72.50
42085;DHT22;27746;52.228;20.890;2023-07-29T13:45:28;28.60;73.00
42085;DHT22;27746;52.228;20.890;2023-07-29T13:47:55;28.60;73.00
42085;DHT22;27746;52.228;20.890;2023-07-29T13:50:22;28.70;72.70
42085;DHT22;27746;52.228;20.890;2023-07-29T13:52:49;28.70;72.50
42085;DHT22;27746;52.228;20.890;2023-07-29T13:55:16;28.60;71.90
42085;DHT22;27746;52.228;20.890;2023-07-29T13:57:44;28.60;72.60
42085;DHT22;27746;52.228;20.890;2023-07-29T14:00:11;28.70;73.00
42085;DHT22;27746;52.228;20.890;2023-07-29T14:02:38;28.80;73.30
42085;DHT22;27746;52.228;20.890;2023-07-29T14:05:05;28.90;73.20
42085;DHT22;27746;52.228;20.890;2023-07-29T14:07:33;28.90;73.40
42085;DHT22;27746;52.228;20.890;2023-07-29T14:10:00;29.00;73.10
42085;DHT22;27746;52.228;20.890;2023-07-29T14:12:26;29.00;72.80
42085;DHT22;27746;52.228;20.890;2023-07-29T14:14:55;29.10;73.30
42085;DHT22;27746;52.228;20.890;2023-07-29T14:17:23;29.10;74.40
42085;DHT22;27746;52.228;20.890;2023-07-29T14:19:49;29.20;73.90
42085;DHT22;27746;52.228;20.890;2023-07-29T14:22:16;29.20;73.40
42085;DHT22;27746;52.228;20.890;2023-07-29T14:24:43;29.10;72.10
42085;DHT22;27746;52.228;20.890;2023-07-29T14:27:10;29.10;72.50
42085;DHT22;27746;52.228;20.890;2023-07-29T14:29:39;29.10;72.90
42085;DHT22;27746;52.228;20.890;2023-07-29T14:32:07;29.00;72.80
42085;DHT22;27746;52.228;20.890;2023-07-29T14:34:34;29.00;73.10
42085;DHT22;27746;52.228;20.890;2023-07-29T14:37:01;29.00;72.00
42085;DHT22;27746;52.228;20.890;2023-07-29T14:39:28;28.90;72.20
42085;DHT22;27746;52.228;20.890;2023-07-29T14:41:55;28.80;72.60
42085;DHT22;27746;52.228;20.890;2023-07-29T14:44:22;28.70;72.80
42085;DHT22;27746;52.228;20.890;2023-07-29T14:46:48;28.60;73.00
42085;DHT22;27746;52.228;20.890;2023-07-29T14:49:17;28.50;73.70
42085;DHT22;27746;52.228;20.890;2023-07-29T14:51:43;28.50;73.80
42085;DHT22;27746;52.228;20.890;2023-07-29T14:54:10;28.40;73.70
42085;DHT22;27746;52.228;20.890;2023-07-29T14:56:37;28.40;72.70
42085;DHT22;27746;52.228;20.890;2023-07-29T14:59:04;28.30;72.20
42085;DHT22;27746;52.228;20.890;2023-07-29T15:01:31;28.20;72.40
42085;DHT22;27746;52.228;20.890;2023-07-29T15:03:58;28.20;72.90
42085;DHT22;27746;52.228;20.890;2023-07-29T15:06:27;28.00;73.50
42085;DHT22;27746;52.228;20.890;2023-07-29T15:08:53;28.10;73.60
42085;DHT22;27746;52.228;20.890;2023-07-29T15:11:20;28.20;73.60
42085;DHT22;27746;52.228;20.890;2023-07-29T15:13:47;28.20;73.90
42085;DHT22;27746;52.228;20.890;2023-07-29T15:16:14;28.20;73.80
42085;DHT22;27746;52.228;20.890;2023-07-29T15:18:41;28.10;73.20
42085;DHT22;27746;52.228;20.890;2023-07-29T15:21:08;28.10;73.20
42085;DHT22;27746;52.228;20.890;2023-07-29T15:23:36;28.10;73.80
42085;DHT22;27746;52.228;20.890;2023-07-29T15:26:03;28.00;73.40
42085;DHT22;27746;52.228;20.890;2023-07-29T15:28:30;27.90;73.80
42085;DHT22;27746;52.228;20.890;2023-07-29T15:30:56;27.80;73.90
42085;DHT22;27746;52.228;20.890;2023-07-29T15:33:23;27.70;74.10
42085;DHT22;27746;52.228;20.890;2023-07-29T15:35:50;27.70;74.50
42085;DHT22;27746;52.228;20.890;2023-07-29T15:38:17;27.70;74.90
42085;DHT22;27746;52.228;20.890;2023-07-29T15:40:46;27.70;75.10
42085;DHT22;27746;52.228;20.890;2023-07-29T15:43:14;27.60;75.20
42085;DHT22;27746;52.228;20.890;2023-07-29T15:45:41;27.60;75.20
42085;DHT22;27746;52.228;20.890;2023-07-29T15:48:09;27.50;75.10
42085;DHT22;27746;52.228;20.890;2023-07-29T15:50:36;27.40;75.10
42085;DHT22;27746;52.228;20.890;2023-07-29T15:53:03;27.40;75.40
42085;DHT22;27746;52.228;20.890;2023-07-29T15:55:30;27.20;75.30
42085;DHT22;27746;52.228;20.890;2023-07-29T15:57:58;27.20;75.70
42085;DHT22;27746;52.228;20.890;2023-07-29T16:00:25;27.20;76.20
42085;DHT22;27746;52.228;20.890;2023-07-29T16:02:54;27.10;76.30
42085;DHT22;27746;52.228;20.890;2023-07-29T16:05:21;27.00;76.30
42085;DHT22;27746;52.228;20.890;2023-07-29T16:07:47;27.00;76.80
42085;DHT22;27746;52.228;20.890;2023-07-29T16:10:14;27.00;77.20
42085;DHT22;27746;52.228;20.890;2023-07-29T16:12:41;27.00;77.40
42085;DHT22;27746;52.228;20.890;2023-07-29T16:15:10;27.00;77.80
42085;DHT22;27746;52.228;20.890;2023-07-29T16:17:37;26.90;77.70
42085;DHT22;27746;52.228;20.890;2023-07-29T16:20:05;26.90;77.90
42085;DHT22;27746;52.228;20.890;2023-07-29T16:22:32;26.80;77.80
42085;DHT22;27746;52.228;20.890;2023-07-29T16:25:00;26.70;78.10
42085;DHT22;27746;52.228;20.890;2023-07-29T16:27:28;26.70;78.80
42085;DHT22;27746;52.228;20.890;2023-07-29T16:29:57;26.70;78.80
42085;DHT22;27746;52.228;20.890;2023-07-29T16:32:25;26.70;78.90
42085;DHT22;27746;52.228;20.890;2023-07-29T16:34:52;26.70;79.00
42085;DHT22;27746;52.228;20.890;2023-07-29T16:37:19;26.50;78.80
42085;DHT22;27746;52.228;20.890;2023-07-29T16:39:46;26.50;79.30
42085;DHT22;27746;52.228;20.890;2023-07-29T16:42:14;26.50;79.80
42085;DHT22;27746;52.228;20.890;2023-07-29T16:44:41;26.40;79.70
42085;DHT22;27746;52.228;20.890;2023-07-29T16:47:07;26.20;80.10
42085;DHT22;27746;52.228;20.890;2023-07-29T16:49:36;26.20;80.80
42085;DHT22;27746;52.228;20.890;2023-07-29T16:52:03;25.90;81.30
42085;DHT22;27746;52.228;20.890;2023-07-29T16:54:30;26.00;81.20
42085;DHT22;27746;52.228;20.890;2023-07-29T16:56:57;26.00;81.30
42085;DHT22;27746;52.228;20.890;2023-07-29T16:59:24;25.90;81.30
42085;DHT22;27746;52.228;20.890;2023-07-29T17:01:51;25.80;81.90
42085;DHT22;27746;52.228;20.890;2023-07-29T17:06:46;25.70;82.10
42085;DHT22;27746;52.228;20.890;2023-07-29T17:09:14;25.60;82.20
42085;DHT22;27746;52.228;20.890;2023-07-29T17:11:41;25.60;82.30
42085;DHT22;27746;52.228;20.890;2023-07-29T17:19:03;25.40;82.90
42085;DHT22;27746;52.228;20.890;2023-07-29T17:21:29;25.40;83.20
42085;DHT22;27746;52.228;20.890;2023-07-29T17:23:58;25.30;83.20
42085;DHT22;27746;52.228;20.890;2023-07-29T17:28:52;25.20;84.00
42085;DHT22;27746;52.228;20.890;2023-07-29T17:33:46;25.20;84.20
42085;DHT22;27746;52.228;20.890;2023-07-29T17:36:13;25.10;84.30
42085;DHT22;27746;52.228;20.890;2023-07-29T17:38:40;25.10;84.50
42085;DHT22;27746;52.228;20.890;2023-07-29T17:41:08;25.10;84.80
42085;DHT22;27746;52.228;20.890;2023-07-29T17:43:35;25.10;84.90
42085;DHT22;27746;52.228;20.890;2023-07-29T17:46:02;25.00;85.10
42085;DHT22;27746;52.228;20.890;2023-07-29T17:48:29;24.80;85.10
42085;DHT22;27746;52.228;20.890;2023-07-29T17:50:56;24.90;85.00
42085;DHT22;27746;52.228;20.890;2023-07-29T17:55:50;24.90;85.30
42085;DHT22;27746;52.228;20.890;2023-07-29T17:58:18;24.90;85.40
42085;DHT22;27746;52.228;20.890;2023-07-29T18:00:45;24.90;85.80
42085;DHT22;27746;52.228;20.890;2023-07-29T18:03:12;24.80;85.90
42085;DHT22;27746;52.228;20.890;2023-07-29T18:05:39;24.80;86.10
42085;DHT22;27746;52.228;20.890;2023-07-29T18:08:05;24.80;86.30
42085;DHT22;27746;52.228;20.890;2023-07-29T18:13:00;24.70;86.60
42085;DHT22;27746;52.228;20.890;2023-07-29T18:15:29;24.70;86.90
42085;DHT22;27746;52.228;20.890;2023-07-29T18:17:56;24.60;87.10
42085;DHT22;27746;52.228;20.890;2023-07-29T18:20:23;24.60;87.10
42085;DHT22;27746;52.228;20.890;2023-07-29T18:22:50;24.50;87.40
42085;DHT22;27746;52.228;20.890;2023-07-29T18:27:44;24.40;87.70
42085;DHT22;27746;52.228;20.890;2023-07-29T18:30:12;24.40;88.00
42085;DHT22;27746;52.228;20.890;2023-07-29T18:32:42;24.40;88.20
42085;DHT22;27746;52.228;20.890;2023-07-29T18:35:09;24.30;88.10
42085;DHT22;27746;52.228;20.890;2023-07-29T18:37:42;24.30;88.50
42085;DHT22;27746;52.228;20.890;2023-07-29T18:40:09;24.30;88.60
42085;DHT22;27746;52.228;20.890;2023-07-29T18:42:36;24.20;88.60
42085;DHT22;27746;52.228;20.890;2023-07-29T18:45:04;24.20;88.60
42085;DHT22;27746;52.228;20.890;2023-07-29T18:47:31;24.10;88.90
42085;DHT22;27746;52.228;20.890;2023-07-29T18:49:59;24.00;89.10
42085;DHT22;27746;52.228;20.890;2023-07-29T18:52:26;24.00;89.40
42085;DHT22;27746;52.228;20.890;2023-07-29T18:57:23;24.00;89.80
42085;DHT22;27746;52.228;20.890;2023-07-29T18:59:50;23.90;89.80
42085;DHT22;27746;52.228;20.890;2023-07-29T19:02:17;23.90;90.00
42085;DHT22;27746;52.228;20.890;2023-07-29T19:04:44;23.90;90.10
42085;DHT22;27746;52.228;20.890;2023-07-29T19:07:14;23.80;90.30
42085;DHT22;27746;52.228;20.890;2023-07-29T19:09:42;23.80;90.30
42085;DHT22;27746;52.228;20.890;2023-07-29T19:12:09;23.80;90.50
42085;DHT22;27746;52.228;20.890;2023-07-29T19:14:38;23.70;90.70
42085;DHT22;27746;52.228;20.890;2023-07-29T19:17:05;23.70;90.70
42085;DHT22;27746;52.228;20.890;2023-07-29T19:19:32;23.70;90.80
42085;DHT22;27746;52.228;20.890;2023-07-29T19:24:27;23.60;91.00
42085;DHT22;27746;52.228;20.890;2023-07-29T19:26:54;23.60;91.10
42085;DHT22;27746;52.228;20.890;2023-07-29T19:29:22;23.50;91.20
42085;DHT22;27746;52.228;20.890;2023-07-29T19:31:52;23.50;91.30
42085;DHT22;27746;52.228;20.890;2023-07-29T19:36:46;23.40;91.40
42085;DHT22;27746;52.228;20.890;2023-07-29T19:39:12;23.40;91.50
42085;DHT22;27746;52.228;20.890;2023-07-29T19:41:41;23.30;91.60
42085;DHT22;27746;52.228;20.890;2023-07-29T19:44:08;23.30;91.70
42085;DHT22;27746;52.228;20.890;2023-07-29T19:51:29;23.20;92.10
42085;DHT22;27746;52.228;20.890;2023-07-29T19:53:56;23.20;92.20
42085;DHT22;27746;52.228;20.890;2023-07-29T19:56:23;23.10;92.40
42085;DHT22;27746;52.228;20.890;2023-07-29T19:58:51;23.10;92.40
42085;DHT22;27746;52.228;20.890;2023-07-29T20:03:45;23.00;92.70
42085;DHT22;27746;52.228;20.890;2023-07-29T20:06:12;22.90;92.80
42085;DHT22;27746;52.228;20.890;2023-07-29T20:08:39;22.90;92.90
42085;DHT22;27746;52.228;20.890;2023-07-29T20:13:34;22.90;93.10
42085;DHT22;27746;52.228;20.890;2023-07-29T20:16:03;22.90;93.30
42085;DHT22;27746;52.228;20.890;2023-07-29T20:18:30;22.80;93.30
42085;DHT22;27746;52.228;20.890;2023-07-29T20:20:56;22.80;93.50
42085;DHT22;27746;52.228;20.890;2023-07-29T20:30:53;22.70;93.70
42085;DHT22;27746;52.228;20.890;2023-07-29T20:33:21;22.70;93.80
42085;DHT22;27746;52.228;20.890;2023-07-29T20:35:53;22.70;93.90
42085;DHT22;27746;52.228;20.890;2023-07-29T20:40:50;22.70;94.00
42085;DHT22;27746;52.228;20.890;2023-07-29T20:43:18;22.70;94.10
42085;DHT22;27746;52.228;20.890;2023-07-29T20:45:45;22.60;94.30
42085;DHT22;27746;52.228;20.890;2023-07-29T20:50:40;22.50;94.60
42085;DHT22;27746;52.228;20.890;2023-07-29T20:58:02;22.50;94.70
42085;DHT22;27746;52.228;20.890;2023-07-29T21:00:29;22.60;94.50
42085;DHT22;27746;52.228;20.890;2023-07-29T21:02:56;22.50;94.20
42085;DHT22;27746;52.228;20.890;2023-07-29T21:07:52;22.50;94.10
42085;DHT22;27746;52.228;20.890;2023-07-29T21:12:46;22.10;95.60
42085;DHT22;27746;52.228;20.890;2023-07-29T21:15:13;21.90;96.40
42085;DHT22;27746;52.228;20.890;2023-07-29T21:20:08;21.50;97.40
42085;DHT22;27746;52.228;20.890;2023-07-29T21:22:35;21.50;97.90
42085;DHT22;27746;52.228;20.890;2023-07-29T21:25:04;21.40;98.20
42085;DHT22;27746;52.228;20.890;2023-07-29T21:27:31;21.40;98.50
42085;DHT22;27746;52.228;20.890;2023-07-29T21:32:26;21.40;99.40
42085;DHT22;27746;52.228;20.890;2023-07-29T21:37:21;21.30;99.90
42085;DHT22;27746;52.228;20.890;2023-07-29T21:39:48;21.20;99.90
42085;DHT22;27746;52.228;20.890;2023-07-29T21:42:16;21.20;99.90
42085;DHT22;27746;52.228;20.890;2023-07-29T21:44:43;21.20;99.90
42085;DHT22;27746;52.228;20.890;2023-07-29T21:47:10;21.10;99.90
42085;DHT22;27746;52.228;20.890;2023-07-29T21:59:27;20.80;99.90
42085;DHT22;27746;52.228;20.890;2023-07-29T22:01:54;20.70;99.90
42085;DHT22;27746;52.228;20.890;2023-07-29T22:14:09;20.40;99.90
42085;DHT22;27746;52.228;20.890;2023-07-29T22:16:37;20.30;99.90
42085;DHT22;27746;52.228;20.890;2023-07-29T22:23:59;20.10;99.90
42085;DHT22;27746;52.228;20.890;2023-07-29T22:33:48;20.00;99.90
42085;DHT22;27746;52.228;20.890;2023-07-29T22:36:15;20.00;99.90
42085;DHT22;27746;52.228;20.890;2023-07-29T22:46:03;19.90;99.90
42085;DHT22;27746;52.228;20.890;2023-07-29T22:50:59;19.80;99.90
42085;DHT22;27746;52.228;20.890;2023-07-29T22:58:21;19.60;99.90
42085;DHT22;27746;52.228;20.890;2023-07-29T23:00:48;19.60;99.90
42085;DHT22;27746;52.228;20.890;2023-07-29T23:03:16;19.60;99.90
42085;DHT22;27746;52.228;20.890;2023-07-29T23:05:43;19.60;99.90
42085;DHT22;27746;52.228;20.890;2023-07-29T23:08:11;19.50;99.90
42085;DHT22;27746;52.228;20.890;2023-07-29T23:10:38;19.50;99.90
42085;DHT22;27746;52.228;20.890;2023-07-29T23:15:33;17.50;99.90
42085;DHT22;27746;52.228;20.890;2023-07-29T23:18:00;19.30;99.90
42085;DHT22;27746;52.228;20.890;2023-07-29T23:20:28;19.30;99.90
42085;DHT22;27746;52.228;20.890;2023-07-29T23:25:23;19.20;99.90
42085;DHT22;27746;52.228;20.890;2023-07-29T23:30:17;19.30;99.90
42085;DHT22;27746;52.228;20.890;2023-07-29T23:35:12;19.10;99.90
42085;DHT22;27746;52.228;20.890;2023-07-29T23:40:07;19.00;99.90
42085;DHT22;27746;52.228;20.890;2023-07-29T23:42:35;19.10;99.90
42085;DHT22;27746;52.228;20.890;2023-07-29T23:45:03;21.30;99.90
42085;DHT22;27746;52.228;20.890;2023-07-29T23:47:30;19.10;99.90
42085;DHT22;27746;52.228;20.890;2023-07-29T23:52:24;19.00;99.90
42085;DHT22;27746;52.228;20.890;2023-07-29T23:54:51;19.00;99.90
42085;DHT22;27746;52.228;20.890;2023-07-29T23:59:46;18.90;99.90
